sensor_id;sensor_type;location;lat;lon;timestamp;P1;durP1;ratioP1;P2;durP2;ratioP2
2161;SDS011;1087;50.226;8.682;2022-10-22T00:01:30;9.97;;;8.97;;
2161;SDS011;1087;50.226;8.682;2022-10-22T00:03:59;10.63;;;9.00;;
2161;SDS011;1087;50.226;8.682;2022-10-22T00:06:25;10.93;;;8.63;;
2161;SDS011;1087;50.226;8.682;2022-10-22T00:08:51;9.37;;;8.47;;
2161;SDS011;1087;50.226;8.682;2022-10-22T00:11:17;11.87;;;8.37;;
2161;SDS011;1087;50.226;8.682;2022-10-22T00:13:44;10.10;;;9.10;;
2161;SDS011;1087;50.226;8.682;2022-10-22T00:16:10;8.90;;;8.03;;
2161;SDS011;1087;50.226;8.682;2022-10-22T00:18:36;10.60;;;8.70;;
2161;SDS011;1087;50.226;8.682;2022-10-22T00:21:02;9.93;;;8.13;;
2161;SDS011;1087;50.226;8.682;2022-10-22T00:23:28;8.97;;;8.07;;
2161;SDS011;1087;50.226;8.682;2022-10-22T00:25:54;9.60;;;8.10;;
2161;SDS011;1087;50.226;8.682;2022-10-22T00:28:19;9.17;;;7.90;;
2161;SDS011;1087;50.226;8.682;2022-10-22T00:30:45;11.43;;;8.90;;
2161;SDS011;1087;50.226;8.682;2022-10-22T00:33:11;11.80;;;8.90;;
2161;SDS011;1087;50.226;8.682;2022-10-22T00:35:36;9.77;;;8.80;;
2161;SDS011;1087;50.226;8.682;2022-10-22T00:38:02;9.30;;;8.37;;
2161;SDS011;1087;50.226;8.682;2022-10-22T00:40:28;11.97;;;8.57;;
2161;SDS011;1087;50.226;8.682;2022-10-22T00:42:54;10.93;;;8.80;;
2161;SDS011;1087;50.226;8.682;2022-10-22T00:45:20;10.30;;;9.27;;
2161;SDS011;1087;50.226;8.682;2022-10-22T00:47:51;9.97;;;8.50;;
2161;SDS011;1087;50.226;8.682;2022-10-22T00:50:33;10.60;;;9.07;;
2161;SDS011;1087;50.226;8.682;2022-10-22T00:53:05;9.60;;;8.70;;
2161;SDS011;1087;50.226;8.682;2022-10-22T00:55:34;9.67;;;8.67;;
2161;SDS011;1087;50.226;8.682;2022-10-22T00:58:00;8.97;;;7.90;;
2161;SDS011;1087;50.226;8.682;2022-10-22T01:00:27;10.20;;;9.00;;
2161;SDS011;1087;50.226;8.682;2022-10-22T01:02:52;10.00;;;8.90;;
2161;SDS011;1087;50.226;8.682;2022-10-22T01:05:19;11.50;;;9.07;;
2161;SDS011;1087;50.226;8.682;2022-10-22T01:07:51;9.97;;;8.13;;
2161;SDS011;1087;50.226;8.682;2022-10-22T01:10:26;9.03;;;7.43;;
2161;SDS011;1087;50.226;8.682;2022-10-22T01:14:07;9.03;;;8.10;;
2161;SDS011;1087;50.226;8.682;2022-10-22T01:19:10;9.57;;;7.37;;
2161;SDS011;1087;50.226;8.682;2022-10-22T01:21:55;10.80;;;8.93;;
2161;SDS011;1087;50.226;8.682;2022-10-22T01:27:03;13.17;;;9.57;;
2161;SDS011;1087;50.226;8.682;2022-10-22T01:29:38;11.73;;;9.73;;
2161;SDS011;1087;50.226;8.682;2022-10-22T01:32:18;10.77;;;9.00;;
2161;SDS011;1087;50.226;8.682;2022-10-22T01:34:54;14.13;;;12.23;;
2161;SDS011;1087;50.226;8.682;2022-10-22T01:37:25;14.70;;;12.23;;
2161;SDS011;1087;50.226;8.682;2022-10-22T01:39:54;13.67;;;11.60;;
2161;SDS011;1087;50.226;8.682;2022-10-22T01:42:21;16.07;;;14.10;;
2161;SDS011;1087;50.226;8.682;2022-10-22T01:44:47;14.50;;;13.10;;
2161;SDS011;1087;50.226;8.682;2022-10-22T01:47:22;15.80;;;13.03;;
2161;SDS011;1087;50.226;8.682;2022-10-22T01:55:17;18.53;;;16.60;;
2161;SDS011;1087;50.226;8.682;2022-10-22T01:58:01;19.70;;;14.10;;
2161;SDS011;1087;50.226;8.682;2022-10-22T02:00:30;17.97;;;16.10;;
2161;SDS011;1087;50.226;8.682;2022-10-22T02:03:01;19.27;;;16.97;;
2161;SDS011;1087;50.226;8.682;2022-10-22T02:05:51;17.77;;;14.70;;
2161;SDS011;1087;50.226;8.682;2022-10-22T02:08:21;16.90;;;14.90;;
2161;SDS011;1087;50.226;8.682;2022-10-22T02:10:49;16.63;;;13.93;;
2161;SDS011;1087;50.226;8.682;2022-10-22T02:13:17;15.60;;;14.00;;
2161;SDS011;1087;50.226;8.682;2022-10-22T02:15:47;22.77;;;15.83;;
2161;SDS011;1087;50.226;8.682;2022-10-22T02:18:15;17.80;;;15.33;;
2161;SDS011;1087;50.226;8.682;2022-10-22T02:20:43;16.93;;;15.13;;
2161;SDS011;1087;50.226;8.682;2022-10-22T02:23:09;18.50;;;15.50;;
2161;SDS011;1087;50.226;8.682;2022-10-22T02:25:37;15.87;;;14.20;;
2161;SDS011;1087;50.226;8.682;2022-10-22T02:28:11;17.13;;;15.33;;
2161;SDS011;1087;50.226;8.682;2022-10-22T02:30:44;18.20;;;15.90;;
2161;SDS011;1087;50.226;8.682;2022-10-22T02:33:16;19.00;;;16.53;;
2161;SDS011;1087;50.226;8.682;2022-10-22T02:35:46;19.60;;;16.27;;
2161;SDS011;1087;50.226;8.682;2022-10-22T02:38:13;17.37;;;15.60;;
2161;SDS011;1087;50.226;8.682;2022-10-22T02:40:39;19.57;;;14.90;;
2161;SDS011;1087;50.226;8.682;2022-10-22T02:43:05;19.20;;;17.23;;
2161;SDS011;1087;50.226;8.682;2022-10-22T02:45:31;16.70;;;15.00;;
2161;SDS011;1087;50.226;8.682;2022-10-22T02:47:57;18.13;;;14.40;;
2161;SDS011;1087;50.226;8.682;2022-10-22T02:50:23;16.50;;;14.90;;
2161;SDS011;1087;50.226;8.682;2022-10-22T02:52:48;17.60;;;15.80;;
2161;SDS011;1087;50.226;8.682;2022-10-22T02:55:14;15.10;;;13.60;;
2161;SDS011;1087;50.226;8.682;2022-10-22T02:57:39;14.93;;;13.37;;
2161;SDS011;1087;50.226;8.682;2022-10-22T03:00:06;16.60;;;14.60;;
2161;SDS011;1087;50.226;8.682;2022-10-22T03:02:32;17.23;;;15.30;;
2161;SDS011;1087;50.226;8.682;2022-10-22T03:04:58;15.53;;;13.93;;
2161;SDS011;1087;50.226;8.682;2022-10-22T03:07:23;16.13;;;13.87;;
2161;SDS011;1087;50.226;8.682;2022-10-22T03:09:49;13.97;;;12.47;;
2161;SDS011;1087;50.226;8.682;2022-10-22T03:12:14;14.47;;;12.97;;
2161;SDS011;1087;50.226;8.682;2022-10-22T03:14:40;14.90;;;13.50;;
2161;SDS011;1087;50.226;8.682;2022-10-22T03:17:05;15.70;;;10.77;;
2161;SDS011;1087;50.226;8.682;2022-10-22T03:19:31;11.37;;;10.03;;
2161;SDS011;1087;50.226;8.682;2022-10-22T03:22:06;11.20;;;10.17;;
2161;SDS011;1087;50.226;8.682;2022-10-22T03:24:56;11.07;;;9.30;;
2161;SDS011;1087;50.226;8.682;2022-10-22T03:27:27;9.43;;;8.50;;
2161;SDS011;1087;50.226;8.682;2022-10-22T03:29:53;10.30;;;9.30;;
2161;SDS011;1087;50.226;8.682;2022-10-22T03:32:20;10.10;;;8.57;;
2161;SDS011;1087;50.226;8.682;2022-10-22T03:34:46;10.10;;;9.03;;
2161;SDS011;1087;50.226;8.682;2022-10-22T03:37:11;11.93;;;10.80;;
2161;SDS011;1087;50.226;8.682;2022-10-22T03:39:37;11.77;;;9.13;;
2161;SDS011;1087;50.226;8.682;2022-10-22T03:42:03;10.60;;;9.07;;
2161;SDS011;1087;50.226;8.682;2022-10-22T03:44:31;9.87;;;8.97;;
2161;SDS011;1087;50.226;8.682;2022-10-22T03:46:56;13.47;;;10.47;;
2161;SDS011;1087;50.226;8.682;2022-10-22T03:49:22;10.70;;;9.70;;
2161;SDS011;1087;50.226;8.682;2022-10-22T03:51:47;10.10;;;9.10;;
2161;SDS011;1087;50.226;8.682;2022-10-22T03:54:14;11.77;;;9.17;;
2161;SDS011;1087;50.226;8.682;2022-10-22T03:56:40;10.27;;;9.27;;
2161;SDS011;1087;50.226;8.682;2022-10-22T03:59:05;11.37;;;9.70;;
2161;SDS011;1087;50.226;8.682;2022-10-22T04:01:31;11.63;;;10.47;;
2161;SDS011;1087;50.226;8.682;2022-10-22T04:03:57;10.57;;;9.33;;
2161;SDS011;1087;50.226;8.682;2022-10-22T04:06:23;10.20;;;6.70;;
2161;SDS011;1087;50.226;8.682;2022-10-22T04:08:48;7.33;;;6.63;;
2161;SDS011;1087;50.226;8.682;2022-10-22T04:11:14;6.80;;;6.10;;
2161;SDS011;1087;50.226;8.682;2022-10-22T04:13:40;6.50;;;5.10;;
2161;SDS011;1087;50.226;8.682;2022-10-22T04:16:11;5.77;;;4.37;;
2161;SDS011;1087;50.226;8.682;2022-10-22T04:18:39;6.13;;;4.70;;
2161;SDS011;1087;50.226;8.682;2022-10-22T04:21:06;4.27;;;3.87;;
2161;SDS011;1087;50.226;8.682;2022-10-22T04:23:32;4.73;;;3.33;;
2161;SDS011;1087;50.226;8.682;2022-10-22T04:25:59;3.53;;;3.23;;
2161;SDS011;1087;50.226;8.682;2022-10-22T04:28:26;4.00;;;3.63;;
2161;SDS011;1087;50.226;8.682;2022-10-22T04:30:52;5.10;;;3.43;;
2161;SDS011;1087;50.226;8.682;2022-10-22T04:33:18;4.00;;;3.40;;
2161;SDS011;1087;50.226;8.682;2022-10-22T04:35:43;3.20;;;2.93;;
2161;SDS011;1087;50.226;8.682;2022-10-22T04:38:09;2.80;;;2.50;;
2161;SDS011;1087;50.226;8.682;2022-10-22T04:40:36;3.53;;;3.23;;
2161;SDS011;1087;50.226;8.682;2022-10-22T04:43:01;3.53;;;3.23;;
2161;SDS011;1087;50.226;8.682;2022-10-22T04:45:27;5.20;;;2.87;;
2161;SDS011;1087;50.226;8.682;2022-10-22T04:47:52;3.70;;;2.97;;
2161;SDS011;1087;50.226;8.682;2022-10-22T04:50:18;5.57;;;2.70;;
2161;SDS011;1087;50.226;8.682;2022-10-22T04:52:43;3.87;;;2.57;;
2161;SDS011;1087;50.226;8.682;2022-10-22T04:55:09;3.63;;;2.60;;
2161;SDS011;1087;50.226;8.682;2022-10-22T04:57:34;2.90;;;2.70;;
2161;SDS011;1087;50.226;8.682;2022-10-22T05:00:00;3.80;;;2.77;;
2161;SDS011;1087;50.226;8.682;2022-10-22T05:02:26;3.70;;;3.00;;
2161;SDS011;1087;50.226;8.682;2022-10-22T05:04:51;2.83;;;2.40;;
2161;SDS011;1087;50.226;8.682;2022-10-22T05:07:17;3.00;;;2.70;;
2161;SDS011;1087;50.226;8.682;2022-10-22T05:09:42;2.80;;;2.57;;
2161;SDS011;1087;50.226;8.682;2022-10-22T05:12:08;2.97;;;2.57;;
2161;SDS011;1087;50.226;8.682;2022-10-22T05:14:34;5.13;;;3.00;;
2161;SDS011;1087;50.226;8.682;2022-10-22T05:16:59;4.23;;;3.40;;
2161;SDS011;1087;50.226;8.682;2022-10-22T05:19:25;3.60;;;2.63;;
2161;SDS011;1087;50.226;8.682;2022-10-22T05:21:54;3.20;;;3.00;;
2161;SDS011;1087;50.226;8.682;2022-10-22T05:24:22;4.30;;;3.47;;
2161;SDS011;1087;50.226;8.682;2022-10-22T05:26:49;4.83;;;2.80;;
2161;SDS011;1087;50.226;8.682;2022-10-22T05:29:16;3.50;;;2.80;;
2161;SDS011;1087;50.226;8.682;2022-10-22T05:31:41;4.53;;;3.03;;
2161;SDS011;1087;50.226;8.682;2022-10-22T05:34:07;5.40;;;2.90;;
2161;SDS011;1087;50.226;8.682;2022-10-22T05:36:32;4.73;;;3.03;;
2161;SDS011;1087;50.226;8.682;2022-10-22T05:38:58;3.20;;;2.80;;
2161;SDS011;1087;50.226;8.682;2022-10-22T05:41:24;3.33;;;3.00;;
2161;SDS011;1087;50.226;8.682;2022-10-22T05:43:53;6.57;;;2.90;;
2161;SDS011;1087;50.226;8.682;2022-10-22T05:46:20;3.60;;;2.60;;
2161;SDS011;1087;50.226;8.682;2022-10-22T05:48:50;5.10;;;2.63;;
2161;SDS011;1087;50.226;8.682;2022-10-22T05:51:17;4.47;;;2.57;;
2161;SDS011;1087;50.226;8.682;2022-10-22T05:53:44;6.13;;;3.40;;
2161;SDS011;1087;50.226;8.682;2022-10-22T05:56:11;3.13;;;2.50;;
2161;SDS011;1087;50.226;8.682;2022-10-22T05:58:39;3.30;;;2.50;;
2161;SDS011;1087;50.226;8.682;2022-10-22T06:01:06;4.67;;;3.07;;
2161;SDS011;1087;50.226;8.682;2022-10-22T06:03:40;3.20;;;2.90;;
2161;SDS011;1087;50.226;8.682;2022-10-22T06:06:12;3.60;;;3.00;;
2161;SDS011;1087;50.226;8.682;2022-10-22T06:08:44;4.87;;;2.60;;
2161;SDS011;1087;50.226;8.682;2022-10-22T06:11:14;4.90;;;2.73;;
2161;SDS011;1087;50.226;8.682;2022-10-22T06:13:42;7.80;;;3.17;;
2161;SDS011;1087;50.226;8.682;2022-10-22T06:16:08;4.00;;;2.93;;
2161;SDS011;1087;50.226;8.682;2022-10-22T06:18:34;4.77;;;3.07;;
2161;SDS011;1087;50.226;8.682;2022-10-22T06:21:03;4.17;;;2.60;;
2161;SDS011;1087;50.226;8.682;2022-10-22T06:23:30;4.97;;;2.50;;
2161;SDS011;1087;50.226;8.682;2022-10-22T06:25:56;2.87;;;2.50;;
2161;SDS011;1087;50.226;8.682;2022-10-22T06:28:23;3.33;;;2.70;;
2161;SDS011;1087;50.226;8.682;2022-10-22T06:30:48;5.87;;;3.10;;
2161;SDS011;1087;50.226;8.682;2022-10-22T06:33:14;2.80;;;2.33;;
2161;SDS011;1087;50.226;8.682;2022-10-22T06:35:39;3.80;;;2.97;;
2161;SDS011;1087;50.226;8.682;2022-10-22T06:38:05;2.57;;;2.37;;
2161;SDS011;1087;50.226;8.682;2022-10-22T06:40:31;3.60;;;3.30;;
2161;SDS011;1087;50.226;8.682;2022-10-22T06:43:00;3.10;;;2.80;;
2161;SDS011;1087;50.226;8.682;2022-10-22T06:45:25;4.43;;;3.60;;
2161;SDS011;1087;50.226;8.682;2022-10-22T06:47:51;5.00;;;3.30;;
2161;SDS011;1087;50.226;8.682;2022-10-22T06:50:17;4.93;;;3.10;;
2161;SDS011;1087;50.226;8.682;2022-10-22T06:52:43;4.23;;;3.10;;
2161;SDS011;1087;50.226;8.682;2022-10-22T06:55:09;3.50;;;2.67;;
2161;SDS011;1087;50.226;8.682;2022-10-22T06:57:35;7.00;;;2.93;;
2161;SDS011;1087;50.226;8.682;2022-10-22T07:00:02;4.40;;;2.60;;
2161;SDS011;1087;50.226;8.682;2022-10-22T07:02:29;3.97;;;2.90;;
2161;SDS011;1087;50.226;8.682;2022-10-22T07:04:54;2.60;;;2.40;;
2161;SDS011;1087;50.226;8.682;2022-10-22T07:07:20;4.40;;;3.60;;
2161;SDS011;1087;50.226;8.682;2022-10-22T07:09:45;2.07;;;1.87;;
2161;SDS011;1087;50.226;8.682;2022-10-22T07:12:13;4.27;;;2.47;;
2161;SDS011;1087;50.226;8.682;2022-10-22T07:14:39;2.53;;;2.30;;
2161;SDS011;1087;50.226;8.682;2022-10-22T07:17:04;5.03;;;2.13;;
2161;SDS011;1087;50.226;8.682;2022-10-22T07:19:30;3.47;;;1.97;;
2161;SDS011;1087;50.226;8.682;2022-10-22T07:21:55;2.57;;;1.50;;
2161;SDS011;1087;50.226;8.682;2022-10-22T07:24:21;4.17;;;2.37;;
2161;SDS011;1087;50.226;8.682;2022-10-22T07:26:46;3.83;;;2.57;;
2161;SDS011;1087;50.226;8.682;2022-10-22T07:29:12;3.20;;;2.50;;
2161;SDS011;1087;50.226;8.682;2022-10-22T07:31:39;2.80;;;2.40;;
2161;SDS011;1087;50.226;8.682;2022-10-22T07:34:05;3.20;;;2.40;;
2161;SDS011;1087;50.226;8.682;2022-10-22T07:36:31;2.30;;;2.03;;
2161;SDS011;1087;50.226;8.682;2022-10-22T07:38:57;2.67;;;2.43;;
2161;SDS011;1087;50.226;8.682;2022-10-22T07:41:23;3.30;;;2.13;;
2161;SDS011;1087;50.226;8.682;2022-10-22T07:43:50;2.57;;;2.37;;
2161;SDS011;1087;50.226;8.682;2022-10-22T07:46:16;3.17;;;2.60;;
2161;SDS011;1087;50.226;8.682;2022-10-22T07:48:41;2.70;;;2.50;;
2161;SDS011;1087;50.226;8.682;2022-10-22T07:51:07;4.20;;;2.50;;
2161;SDS011;1087;50.226;8.682;2022-10-22T07:53:32;3.37;;;2.60;;
2161;SDS011;1087;50.226;8.682;2022-10-22T07:55:58;3.70;;;2.83;;
2161;SDS011;1087;50.226;8.682;2022-10-22T07:58:24;2.73;;;2.53;;
2161;SDS011;1087;50.226;8.682;2022-10-22T08:00:49;3.20;;;2.67;;
2161;SDS011;1087;50.226;8.682;2022-10-22T08:03:18;3.90;;;2.67;;
2161;SDS011;1087;50.226;8.682;2022-10-22T08:05:44;3.70;;;2.70;;
2161;SDS011;1087;50.226;8.682;2022-10-22T08:08:10;3.30;;;3.00;;
2161;SDS011;1087;50.226;8.682;2022-10-22T08:10:39;4.20;;;3.20;;
2161;SDS011;1087;50.226;8.682;2022-10-22T08:13:05;3.70;;;2.90;;
2161;SDS011;1087;50.226;8.682;2022-10-22T08:15:31;3.10;;;2.80;;
2161;SDS011;1087;50.226;8.682;2022-10-22T08:17:57;3.40;;;2.60;;
2161;SDS011;1087;50.226;8.682;2022-10-22T08:20:23;4.13;;;2.60;;
2161;SDS011;1087;50.226;8.682;2022-10-22T08:22:48;2.40;;;2.20;;
2161;SDS011;1087;50.226;8.682;2022-10-22T08:25:14;3.67;;;2.37;;
2161;SDS011;1087;50.226;8.682;2022-10-22T08:27:41;2.30;;;2.10;;
2161;SDS011;1087;50.226;8.682;2022-10-22T08:30:07;2.47;;;2.07;;
2161;SDS011;1087;50.226;8.682;2022-10-22T08:32:33;2.73;;;2.53;;
2161;SDS011;1087;50.226;8.682;2022-10-22T08:34:59;2.00;;;1.80;;
2161;SDS011;1087;50.226;8.682;2022-10-22T08:37:24;2.63;;;1.70;;
2161;SDS011;1087;50.226;8.682;2022-10-22T08:39:50;3.30;;;2.37;;
2161;SDS011;1087;50.226;8.682;2022-10-22T08:45:19;2.90;;;2.30;;
2161;SDS011;1087;50.226;8.682;2022-10-22T08:50:30;2.10;;;1.57;;
2161;SDS011;1087;50.226;8.682;2022-10-22T08:53:01;2.43;;;2.00;;
2161;SDS011;1087;50.226;8.682;2022-10-22T08:55:30;3.00;;;2.47;;
2161;SDS011;1087;50.226;8.682;2022-10-22T09:00:51;2.20;;;1.97;;
2161;SDS011;1087;50.226;8.682;2022-10-22T09:08:38;3.03;;;1.90;;
2161;SDS011;1087;50.226;8.682;2022-10-22T09:11:13;2.83;;;2.03;;
2161;SDS011;1087;50.226;8.682;2022-10-22T09:13:47;2.67;;;2.47;;
2161;SDS011;1087;50.226;8.682;2022-10-22T09:16:15;3.60;;;2.20;;
2161;SDS011;1087;50.226;8.682;2022-10-22T09:21:33;2.80;;;2.60;;
2161;SDS011;1087;50.226;8.682;2022-10-22T09:27:08;2.20;;;1.97;;
2161;SDS011;1087;50.226;8.682;2022-10-22T09:29:39;3.13;;;2.30;;
2161;SDS011;1087;50.226;8.682;2022-10-22T09:32:05;3.93;;;2.13;;
2161;SDS011;1087;50.226;8.682;2022-10-22T09:34:31;2.30;;;1.83;;
2161;SDS011;1087;50.226;8.682;2022-10-22T09:37:01;2.83;;;2.23;;
2161;SDS011;1087;50.226;8.682;2022-10-22T09:39:33;3.20;;;1.90;;
2161;SDS011;1087;50.226;8.682;2022-10-22T09:42:08;2.13;;;1.70;;
2161;SDS011;1087;50.226;8.682;2022-10-22T09:44:36;2.20;;;1.93;;
2161;SDS011;1087;50.226;8.682;2022-10-22T09:47:03;2.37;;;1.90;;
2161;SDS011;1087;50.226;8.682;2022-10-22T09:50:03;2.63;;;2.10;;
2161;SDS011;1087;50.226;8.682;2022-10-22T09:52:59;3.60;;;2.30;;
2161;SDS011;1087;50.226;8.682;2022-10-22T09:55:31;2.17;;;1.97;;
2161;SDS011;1087;50.226;8.682;2022-10-22T09:57:57;2.17;;;1.90;;
2161;SDS011;1087;50.226;8.682;2022-10-22T10:00:24;2.53;;;1.53;;
2161;SDS011;1087;50.226;8.682;2022-10-22T10:02:58;1.77;;;1.67;;
2161;SDS011;1087;50.226;8.682;2022-10-22T10:05:25;1.97;;;1.70;;
2161;SDS011;1087;50.226;8.682;2022-10-22T10:07:53;2.07;;;1.87;;
2161;SDS011;1087;50.226;8.682;2022-10-22T10:10:20;2.63;;;1.93;;
2161;SDS011;1087;50.226;8.682;2022-10-22T10:15:46;1.93;;;1.73;;
2161;SDS011;1087;50.226;8.682;2022-10-22T10:23:49;3.27;;;1.60;;
2161;SDS011;1087;50.226;8.682;2022-10-22T10:26:33;1.60;;;1.50;;
2161;SDS011;1087;50.226;8.682;2022-10-22T10:29:42;1.87;;;1.43;;
2161;SDS011;1087;50.226;8.682;2022-10-22T10:32:27;4.17;;;1.67;;
2161;SDS011;1087;50.226;8.682;2022-10-22T10:40:33;3.63;;;1.70;;
2161;SDS011;1087;50.226;8.682;2022-10-22T10:53:54;3.10;;;1.30;;
2161;SDS011;1087;50.226;8.682;2022-10-22T10:59:20;2.30;;;1.50;;
2161;SDS011;1087;50.226;8.682;2022-10-22T11:04:43;3.67;;;2.00;;
2161;SDS011;1087;50.226;8.682;2022-10-22T11:07:33;1.83;;;1.23;;
2161;SDS011;1087;50.226;8.682;2022-10-22T11:10:13;2.37;;;1.80;;
2161;SDS011;1087;50.226;8.682;2022-10-22T11:12:49;2.40;;;1.17;;
2161;SDS011;1087;50.226;8.682;2022-10-22T11:15:32;1.73;;;1.43;;
2161;SDS011;1087;50.226;8.682;2022-10-22T11:18:02;2.00;;;1.60;;
2161;SDS011;1087;50.226;8.682;2022-10-22T11:21:05;2.43;;;1.10;;
2161;SDS011;1087;50.226;8.682;2022-10-22T11:23:37;2.30;;;1.07;;
2161;SDS011;1087;50.226;8.682;2022-10-22T11:26:12;2.67;;;1.40;;
2161;SDS011;1087;50.226;8.682;2022-10-22T11:28:45;2.20;;;1.43;;
2161;SDS011;1087;50.226;8.682;2022-10-22T11:31:15;1.50;;;1.40;;
2161;SDS011;1087;50.226;8.682;2022-10-22T11:36:40;2.90;;;1.40;;
2161;SDS011;1087;50.226;8.682;2022-10-22T11:39:13;3.47;;;1.10;;
2161;SDS011;1087;50.226;8.682;2022-10-22T11:41:54;3.23;;;1.30;;
2161;SDS011;1087;50.226;8.682;2022-10-22T11:44:22;1.60;;;1.40;;
2161;SDS011;1087;50.226;8.682;2022-10-22T11:46:57;1.97;;;1.47;;
2161;SDS011;1087;50.226;8.682;2022-10-22T11:49:42;2.43;;;1.30;;
2161;SDS011;1087;50.226;8.682;2022-10-22T11:54:54;2.70;;;1.40;;
2161;SDS011;1087;50.226;8.682;2022-10-22T11:57:34;1.63;;;1.50;;
2161;SDS011;1087;50.226;8.682;2022-10-22T12:00:05;6.37;;;1.20;;
2161;SDS011;1087;50.226;8.682;2022-10-22T12:02:44;2.37;;;1.50;;
2161;SDS011;1087;50.226;8.682;2022-10-22T12:07:50;3.03;;;1.53;;
2161;SDS011;1087;50.226;8.682;2022-10-22T12:10:47;1.77;;;1.20;;
2161;SDS011;1087;50.226;8.682;2022-10-22T12:13:21;1.93;;;1.40;;
2161;SDS011;1087;50.226;8.682;2022-10-22T12:16:07;3.30;;;1.37;;
2161;SDS011;1087;50.226;8.682;2022-10-22T12:18:38;3.23;;;1.40;;
2161;SDS011;1087;50.226;8.682;2022-10-22T12:21:08;3.67;;;1.87;;
2161;SDS011;1087;50.226;8.682;2022-10-22T12:23:37;2.10;;;1.30;;
2161;SDS011;1087;50.226;8.682;2022-10-22T12:26:03;2.30;;;1.43;;
2161;SDS011;1087;50.226;8.682;2022-10-22T12:28:36;2.00;;;1.50;;
2161;SDS011;1087;50.226;8.682;2022-10-22T12:31:03;3.00;;;1.87;;
2161;SDS011;1087;50.226;8.682;2022-10-22T12:33:28;1.67;;;1.20;;
2161;SDS011;1087;50.226;8.682;2022-10-22T12:35:56;2.60;;;1.23;;
2161;SDS011;1087;50.226;8.682;2022-10-22T12:38:24;2.40;;;1.50;;
2161;SDS011;1087;50.226;8.682;2022-10-22T12:40:50;2.80;;;1.37;;
2161;SDS011;1087;50.226;8.682;2022-10-22T12:43:23;7.57;;;1.73;;
2161;SDS011;1087;50.226;8.682;2022-10-22T12:45:54;1.47;;;1.30;;
2161;SDS011;1087;50.226;8.682;2022-10-22T12:48:31;1.83;;;1.23;;
2161;SDS011;1087;50.226;8.682;2022-10-22T12:51:02;4.00;;;1.40;;
2161;SDS011;1087;50.226;8.682;2022-10-22T12:53:33;2.00;;;1.70;;
2161;SDS011;1087;50.226;8.682;2022-10-22T12:56:11;1.87;;;1.13;;
2161;SDS011;1087;50.226;8.682;2022-10-22T12:58:41;1.10;;;1.00;;
2161;SDS011;1087;50.226;8.682;2022-10-22T13:01:10;4.70;;;1.60;;
2161;SDS011;1087;50.226;8.682;2022-10-22T13:03:48;1.93;;;1.13;;
2161;SDS011;1087;50.226;8.682;2022-10-22T13:08:44;1.90;;;1.40;;
2161;SDS011;1087;50.226;8.682;2022-10-22T13:11:32;3.97;;;1.70;;
2161;SDS011;1087;50.226;8.682;2022-10-22T13:14:12;2.10;;;1.50;;
2161;SDS011;1087;50.226;8.682;2022-10-22T13:16:42;2.50;;;1.30;;
2161;SDS011;1087;50.226;8.682;2022-10-22T13:22:29;3.00;;;1.93;;
2161;SDS011;1087;50.226;8.682;2022-10-22T13:24:56;2.60;;;1.23;;
2161;SDS011;1087;50.226;8.682;2022-10-22T13:27:24;2.00;;;1.30;;
2161;SDS011;1087;50.226;8.682;2022-10-22T13:29:51;2.60;;;1.70;;
2161;SDS011;1087;50.226;8.682;2022-10-22T13:32:21;2.47;;;1.57;;
2161;SDS011;1087;50.226;8.682;2022-10-22T13:34:55;3.33;;;1.57;;
2161;SDS011;1087;50.226;8.682;2022-10-22T13:37:22;3.60;;;1.60;;
2161;SDS011;1087;50.226;8.682;2022-10-22T13:39:48;2.43;;;1.50;;
2161;SDS011;1087;50.226;8.682;2022-10-22T13:42:13;3.20;;;1.87;;
2161;SDS011;1087;50.226;8.682;2022-10-22T13:44:39;2.07;;;1.87;;
2161;SDS011;1087;50.226;8.682;2022-10-22T13:47:08;3.63;;;1.63;;
2161;SDS011;1087;50.226;8.682;2022-10-22T13:49:49;2.40;;;1.50;;
2161;SDS011;1087;50.226;8.682;2022-10-22T13:52:20;4.50;;;1.30;;
2161;SDS011;1087;50.226;8.682;2022-10-22T13:54:51;2.83;;;1.60;;
2161;SDS011;1087;50.226;8.682;2022-10-22T13:57:17;3.33;;;1.60;;
2161;SDS011;1087;50.226;8.682;2022-10-22T13:59:42;4.93;;;1.80;;
2161;SDS011;1087;50.226;8.682;2022-10-22T14:02:11;2.37;;;1.50;;
2161;SDS011;1087;50.226;8.682;2022-10-22T14:04:38;2.53;;;1.80;;
2161;SDS011;1087;50.226;8.682;2022-10-22T14:07:12;2.10;;;1.53;;
2161;SDS011;1087;50.226;8.682;2022-10-22T14:09:39;2.60;;;2.00;;
2161;SDS011;1087;50.226;8.682;2022-10-22T14:12:11;3.10;;;1.80;;
2161;SDS011;1087;50.226;8.682;2022-10-22T14:14:38;2.33;;;1.40;;
2161;SDS011;1087;50.226;8.682;2022-10-22T14:17:04;2.80;;;1.53;;
2161;SDS011;1087;50.226;8.682;2022-10-22T14:19:32;7.17;;;2.40;;
2161;SDS011;1087;50.226;8.682;2022-10-22T14:21:58;2.77;;;2.00;;
2161;SDS011;1087;50.226;8.682;2022-10-22T14:24:23;3.03;;;1.80;;
2161;SDS011;1087;50.226;8.682;2022-10-22T14:26:49;2.30;;;1.80;;
2161;SDS011;1087;50.226;8.682;2022-10-22T14:29:14;2.80;;;1.57;;
2161;SDS011;1087;50.226;8.682;2022-10-22T14:31:40;4.70;;;1.77;;
2161;SDS011;1087;50.226;8.682;2022-10-22T14:34:11;3.00;;;1.83;;
2161;SDS011;1087;50.226;8.682;2022-10-22T14:36:38;2.83;;;1.80;;
2161;SDS011;1087;50.226;8.682;2022-10-22T14:39:04;2.83;;;1.70;;
2161;SDS011;1087;50.226;8.682;2022-10-22T14:41:29;3.00;;;2.07;;
2161;SDS011;1087;50.226;8.682;2022-10-22T14:43:55;3.97;;;1.97;;
2161;SDS011;1087;50.226;8.682;2022-10-22T14:46:23;2.70;;;1.90;;
2161;SDS011;1087;50.226;8.682;2022-10-22T14:48:49;4.37;;;1.53;;
2161;SDS011;1087;50.226;8.682;2022-10-22T14:51:18;3.90;;;1.60;;
2161;SDS011;1087;50.226;8.682;2022-10-22T14:53:45;2.93;;;1.73;;
2161;SDS011;1087;50.226;8.682;2022-10-22T14:56:11;3.67;;;1.53;;
2161;SDS011;1087;50.226;8.682;2022-10-22T14:58:42;4.07;;;1.83;;
2161;SDS011;1087;50.226;8.682;2022-10-22T15:01:07;2.73;;;2.10;;
2161;SDS011;1087;50.226;8.682;2022-10-22T15:03:34;4.20;;;2.53;;
2161;SDS011;1087;50.226;8.682;2022-10-22T15:06:00;3.50;;;2.03;;
2161;SDS011;1087;50.226;8.682;2022-10-22T15:08:26;4.63;;;2.00;;
2161;SDS011;1087;50.226;8.682;2022-10-22T15:13:29;5.93;;;2.60;;
2161;SDS011;1087;50.226;8.682;2022-10-22T15:15:56;6.30;;;2.50;;
2161;SDS011;1087;50.226;8.682;2022-10-22T15:18:22;4.53;;;2.10;;
2161;SDS011;1087;50.226;8.682;2022-10-22T15:20:55;3.23;;;2.00;;
2161;SDS011;1087;50.226;8.682;2022-10-22T15:23:22;5.67;;;2.27;;
2161;SDS011;1087;50.226;8.682;2022-10-22T15:25:48;2.50;;;2.30;;
2161;SDS011;1087;50.226;8.682;2022-10-22T15:28:14;4.50;;;2.30;;
2161;SDS011;1087;50.226;8.682;2022-10-22T15:30:39;3.40;;;2.40;;
2161;SDS011;1087;50.226;8.682;2022-10-22T15:33:05;3.80;;;2.30;;
2161;SDS011;1087;50.226;8.682;2022-10-22T15:35:30;6.00;;;2.43;;
2161;SDS011;1087;50.226;8.682;2022-10-22T15:37:56;2.37;;;1.40;;
2161;SDS011;1087;50.226;8.682;2022-10-22T15:40:21;2.33;;;1.83;;
2161;SDS011;1087;50.226;8.682;2022-10-22T15:42:47;5.00;;;2.17;;
2161;SDS011;1087;50.226;8.682;2022-10-22T15:45:12;2.73;;;1.70;;
2161;SDS011;1087;50.226;8.682;2022-10-22T15:47:39;3.77;;;2.63;;
2161;SDS011;1087;50.226;8.682;2022-10-22T15:50:09;5.60;;;2.57;;
2161;SDS011;1087;50.226;8.682;2022-10-22T15:52:35;4.80;;;2.07;;
2161;SDS011;1087;50.226;8.682;2022-10-22T15:55:00;4.80;;;2.13;;
2161;SDS011;1087;50.226;8.682;2022-10-22T15:57:30;4.40;;;2.43;;
2161;SDS011;1087;50.226;8.682;2022-10-22T15:59:56;3.57;;;1.93;;
2161;SDS011;1087;50.226;8.682;2022-10-22T16:02:22;5.17;;;3.03;;
2161;SDS011;1087;50.226;8.682;2022-10-22T16:04:47;5.80;;;2.40;;
2161;SDS011;1087;50.226;8.682;2022-10-22T16:07:13;8.20;;;3.00;;
2161;SDS011;1087;50.226;8.682;2022-10-22T16:09:38;4.13;;;2.50;;
2161;SDS011;1087;50.226;8.682;2022-10-22T16:12:04;5.57;;;3.93;;
2161;SDS011;1087;50.226;8.682;2022-10-22T16:14:29;5.10;;;3.40;;
2161;SDS011;1087;50.226;8.682;2022-10-22T16:16:55;4.73;;;4.20;;
2161;SDS011;1087;50.226;8.682;2022-10-22T16:19:21;5.63;;;4.00;;
2161;SDS011;1087;50.226;8.682;2022-10-22T16:21:49;8.83;;;4.20;;
2161;SDS011;1087;50.226;8.682;2022-10-22T16:24:16;11.40;;;3.80;;
2161;SDS011;1087;50.226;8.682;2022-10-22T16:26:42;5.43;;;3.00;;
2161;SDS011;1087;50.226;8.682;2022-10-22T16:29:08;5.93;;;3.80;;
2161;SDS011;1087;50.226;8.682;2022-10-22T16:31:36;5.00;;;3.47;;
2161;SDS011;1087;50.226;8.682;2022-10-22T16:34:02;7.27;;;3.60;;
2161;SDS011;1087;50.226;8.682;2022-10-22T16:36:27;7.20;;;4.70;;
2161;SDS011;1087;50.226;8.682;2022-10-22T16:38:53;6.47;;;3.80;;